Time;durP1;ratioP1;P1;durP2;ratioP2;P2;SDS_P1;SDS_P2;PMS_P1;PMS_P2;Temp;Humidity;BMP_temperature;BMP_pressure;BME280_temperature;BME280_humidity;BME280_pressure;Samples;Min_cycle;Max_cycle;Signal;HPM_P1;HPM_P2
2021/11/04 00:02:06;;;;;;;99.00;38.97;;;;;;;;;;5011136;28;20089;-67
2021/11/04 00:04:31;;;;;;;106.07;39.17;;;;;;;;;;5011289;28;20034;-66
2021/11/04 00:06:56;;;;;;;102.13;40.53;;;;;;;;;;5011140;28;20025;-66
2021/11/04 00:09:22;;;;;;;95.95;36.05;;;;;;;;;;5010606;28;20512;-66
2021/11/04 00:11:47;;;;;;;102.15;36.47;;;;;;;;;;5009199;28;20021;-67
2021/11/04 00:14:12;;;;;;;98.18;37.25;;;;;;;;;;5010255;28;20084;-66
2021/11/04 00:16:37;;;;;;;98.53;37.25;;;;;;;;;;5000439;28;20028;-66
2021/11/04 00:19:03;;;;;;;105.55;37.03;;;;;;;;;;5006273;28;20146;-66
2021/11/04 00:21:28;;;;;;;101.03;41.03;;;;;;;;;;5004813;28;20029;-66
2021/11/04 00:23:53;;;;;;;111.90;38.38;;;;;;;;;;5008582;28;20076;-66
2021/11/04 00:26:18;;;;;;;95.40;35.15;;;;;;;;;;5008973;28;20021;-67
2021/11/04 00:28:43;;;;;;;101.88;36.95;;;;;;;;;;5005498;28;20041;-67
2021/11/04 00:31:09;;;;;;;98.65;36.70;;;;;;;;;;5006948;28;20088;-67
2021/11/04 00:33:35;;;;;;;99.88;35.78;;;;;;;;;;5008973;28;20100;-66
2021/11/04 00:36:00;;;;;;;99.93;35.72;;;;;;;;;;5000873;28;20081;-65
2021/11/04 00:38:25;;;;;;;96.00;35.20;;;;;;;;;;5005893;28;20426;-64
2021/11/04 00:40:51;;;;;;;107.95;35.50;;;;;;;;;;5006069;28;20295;-67
2021/11/04 00:43:16;;;;;;;109.53;37.40;;;;;;;;;;5007858;28;20101;-66
2021/11/04 00:45:41;;;;;;;105.80;38.42;;;;;;;;;;5009992;28;20101;-66
2021/11/04 00:48:06;;;;;;;101.18;37.47;;;;;;;;;;5010380;28;20105;-66
2021/11/04 00:50:32;;;;;;;100.90;33.08;;;;;;;;;;5010666;28;20125;-67
2021/11/04 00:52:57;;;;;;;95.72;35.00;;;;;;;;;;5008544;28;20041;-65
2021/11/04 00:55:22;;;;;;;100.15;36.67;;;;;;;;;;5007549;28;20565;-66
2021/11/04 00:57:49;;;;;;;100.80;34.40;;;;;;;;;;5008102;28;20037;-66
2021/11/04 01:00:15;;;;;;;112.88;39.33;;;;;;;;;;5009965;28;20014;-67
2021/11/04 01:02:40;;;;;;;98.35;36.28;;;;;;;;;;5010415;28;20157;-66
2021/11/04 01:05:05;;;;;;;95.63;35.42;;;;;;;;;;5009796;28;20037;-66
2021/11/04 01:07:30;;;;;;;99.68;36.13;;;;;;;;;;5010033;28;20037;-66
2021/11/04 01:09:56;;;;;;;103.97;36.05;;;;;;;;;;5010392;28;20460;-66
2021/11/04 01:12:21;;;;;;;104.60;39.28;;;;;;;;;;5010524;28;20026;-66
2021/11/04 01:14:46;;;;;;;106.22;36.65;;;;;;;;;;5020544;28;20036;-66
2021/11/04 01:17:11;;;;;;;109.13;39.10;;;;;;;;;;5009650;28;20014;-66
2021/11/04 01:19:37;;;;;;;95.25;35.72;;;;;;;;;;5008846;28;20470;-66
2021/11/04 01:22:02;;;;;;;99.55;36.97;;;;;;;;;;5009532;28;20052;-67
2021/11/04 01:24:27;;;;;;;113.15;39.60;;;;;;;;;;5010483;28;20414;-65
2021/11/04 01:26:53;;;;;;;92.38;38.10;;;;;;;;;;5010327;28;20030;-66
2021/11/04 01:29:18;;;;;;;109.75;39.78;;;;;;;;;;5030142;22;20525;-87
2021/11/04 01:31:46;;;;;;;111.90;39.40;;;;;;;;;;5027048;28;20022;-87
2021/11/04 01:34:17;;;;;;;117.57;40.25;;;;;;;;;;5021362;28;20021;-88
2021/11/04 01:36:42;;;;;;;120.88;40.78;;;;;;;;;;5020593;28;20017;-87
2021/11/04 01:39:08;;;;;;;114.63;37.88;;;;;;;;;;5026584;28;20025;-88
2021/11/04 01:41:36;;;;;;;119.38;40.50;;;;;;;;;;5027894;28;20033;-87
2021/11/04 01:44:01;;;;;;;106.88;37.65;;;;;;;;;;5030597;28;20025;-86
2021/11/04 01:46:27;;;;;;;108.38;38.85;;;;;;;;;;5026990;28;20059;-88
2021/11/04 01:48:55;;;;;;;111.25;38.40;;;;;;;;;;5027480;28;20051;-88
2021/11/04 01:51:21;;;;;;;115.15;38.85;;;;;;;;;;5030003;28;20021;-87
2021/11/04 01:53:46;;;;;;;108.55;38.65;;;;;;;;;;5028040;28;20033;-87
2021/11/04 01:56:12;;;;;;;109.13;38.60;;;;;;;;;;5028775;28;20022;-87
2021/11/04 01:58:37;;;;;;;110.68;39.95;;;;;;;;;;5028893;28;20760;-86
2021/11/04 02:01:03;;;;;;;111.88;38.28;;;;;;;;;;5030591;28;20045;-87
2021/11/04 02:03:54;;;;;;;117.00;39.40;;;;;;;;;;5027842;28;20027;-87
2021/11/04 02:06:27;;;;;;;109.78;40.78;;;;;;;;;;5019013;28;20033;-87
2021/11/04 02:09:05;;;;;;;123.78;39.83;;;;;;;;;;5037358;28;20427;-87
2021/11/04 02:11:37;;;;;;;142.10;43.58;;;;;;;;;;5030010;28;20023;-87
2021/11/04 02:14:06;;;;;;;131.18;44.35;;;;;;;;;;5030035;28;20027;-87
2021/11/04 02:16:32;;;;;;;152.65;47.67;;;;;;;;;;5030361;28;20029;-87
2021/11/04 02:19:00;;;;;;;156.57;50.28;;;;;;;;;;5031162;28;20022;-87
2021/11/04 02:21:34;;;;;;;162.15;51.35;;;;;;;;;;5030877;28;20400;-87
2021/11/04 02:24:19;;;;;;;143.43;47.28;;;;;;;;;;5029461;28;20063;-87
2021/11/04 02:26:46;;;;;;;168.07;53.03;;;;;;;;;;5019528;28;20064;-87
2021/11/04 02:29:12;;;;;;;175.90;55.05;;;;;;;;;;5031179;28;20018;-87
2021/11/04 02:31:37;;;;;;;168.65;54.78;;;;;;;;;;5029280;28;20033;-86
2021/11/04 02:34:02;;;;;;;162.60;52.88;;;;;;;;;;5030565;28;20502;-87
2021/11/04 02:36:28;;;;;;;155.88;49.75;;;;;;;;;;5031191;28;20021;-87
2021/11/04 02:38:53;;;;;;;177.10;54.40;;;;;;;;;;5029299;28;20105;-87
2021/11/04 02:41:19;;;;;;;195.98;56.35;;;;;;;;;;5030369;28;20032;-88
2021/11/04 02:43:44;;;;;;;180.90;54.88;;;;;;;;;;5029563;28;20047;-88
2021/11/04 02:46:10;;;;;;;179.35;59.17;;;;;;;;;;5028959;28;20026;-87
2021/11/04 02:48:35;;;;;;;178.10;52.58;;;;;;;;;;5029802;28;20029;-87
2021/11/04 02:51:01;;;;;;;186.13;54.00;;;;;;;;;;5030654;28;20021;-87
2021/11/04 02:53:28;;;;;;;172.52;51.13;;;;;;;;;;5028323;28;20451;-88
2021/11/04 02:55:54;;;;;;;184.13;54.17;;;;;;;;;;5029727;28;20047;-88
2021/11/04 02:58:19;;;;;;;180.10;52.20;;;;;;;;;;5030610;28;20017;-87
2021/11/04 03:00:49;;;;;;;171.93;49.67;;;;;;;;;;5030279;28;20377;-88
2021/11/04 03:03:15;;;;;;;186.70;56.40;;;;;;;;;;5029123;28;20010;-88
2021/11/04 03:05:41;;;;;;;161.15;50.33;;;;;;;;;;5030529;28;20041;-88
2021/11/04 03:08:06;;;;;;;158.38;48.53;;;;;;;;;;5030696;28;20032;-87
2021/11/04 03:10:32;;;;;;;168.13;51.35;;;;;;;;;;5030439;28;20495;-88
2021/11/04 03:12:57;;;;;;;158.68;47.67;;;;;;;;;;5028877;28;20105;-88
2021/11/04 03:15:25;;;;;;;159.10;47.60;;;;;;;;;;5029279;28;20025;-87
2021/11/04 03:17:52;;;;;;;180.00;50.20;;;;;;;;;;5028115;28;20022;-88
2021/11/04 03:20:18;;;;;;;173.10;51.28;;;;;;;;;;5030189;28;20033;-88
2021/11/04 03:22:44;;;;;;;165.57;48.08;;;;;;;;;;5029375;28;20022;-88
2021/11/04 03:25:09;;;;;;;176.85;54.95;;;;;;;;;;5029568;28;20451;-87
2021/11/04 03:27:37;;;;;;;179.63;52.35;;;;;;;;;;5028377;28;20745;-87
2021/11/04 03:30:03;;;;;;;181.32;47.78;;;;;;;;;;5028877;28;20029;-88
2021/11/04 03:32:29;;;;;;;162.85;48.78;;;;;;;;;;5028637;28;20025;-87
2021/11/04 03:34:55;;;;;;;182.45;51.40;;;;;;;;;;5031204;28;20067;-88
2021/11/04 03:37:21;;;;;;;174.65;47.60;;;;;;;;;;5031473;28;20025;-88
2021/11/04 03:39:47;;;;;;;185.57;58.05;;;;;;;;;;5048827;28;20044;-88
2021/11/04 03:42:12;;;;;;;184.48;50.33;;;;;;;;;;5049986;28;20041;-87
2021/11/04 03:44:41;;;;;;;167.27;47.83;;;;;;;;;;5051698;28;20021;-87
2021/11/04 03:47:07;;;;;;;173.98;52.92;;;;;;;;;;5050457;28;20030;-87
2021/11/04 03:49:33;;;;;;;177.20;54.33;;;;;;;;;;5049821;28;20425;-88
2021/11/04 03:51:58;;;;;;;175.90;48.97;;;;;;;;;;5047543;28;20026;-86
2021/11/04 03:54:26;;;;;;;175.23;49.28;;;;;;;;;;5053097;28;20044;-87
2021/11/04 03:56:52;;;;;;;188.18;56.25;;;;;;;;;;5045562;28;20002;-87
2021/11/04 03:59:17;;;;;;;183.68;54.20;;;;;;;;;;5035279;28;20033;-87
2021/11/04 04:01:43;;;;;;;171.30;44.95;;;;;;;;;;5032163;28;20025;-88
2021/11/04 04:04:08;;;;;;;189.75;51.40;;;;;;;;;;5030724;28;20112;-87
2021/11/04 04:06:35;;;;;;;192.77;60.88;;;;;;;;;;5030271;28;20119;-87
2021/11/04 04:09:00;;;;;;;165.52;46.17;;;;;;;;;;5028229;28;20022;-87
2021/11/04 04:11:28;;;;;;;181.90;49.10;;;;;;;;;;5030359;28;20027;-88
2021/11/04 04:13:55;;;;;;;168.02;47.17;;;;;;;;;;5029073;28;20025;-87
2021/11/04 04:16:23;;;;;;;165.75;46.42;;;;;;;;;;5028824;28;20033;-87
2021/11/04 04:18:49;;;;;;;156.10;45.08;;;;;;;;;;5028556;28;20013;-87
2021/11/04 04:21:14;;;;;;;179.90;49.67;;;;;;;;;;5028559;28;20063;-87
2021/11/04 04:23:40;;;;;;;170.43;45.88;;;;;;;;;;5030304;28;20026;-87
2021/11/04 04:26:05;;;;;;;165.65;48.42;;;;;;;;;;5034775;28;20025;-87
2021/11/04 04:28:30;;;;;;;167.95;41.97;;;;;;;;;;5050687;28;20026;-87
2021/11/04 04:30:56;;;;;;;147.27;42.05;;;;;;;;;;5052962;28;20040;-86
2021/11/04 04:33:21;;;;;;;168.25;46.08;;;;;;;;;;5053093;28;20014;-87
2021/11/04 04:35:46;;;;;;;159.07;44.40;;;;;;;;;;5052934;28;20028;-86
2021/11/04 04:38:12;;;;;;;157.82;44.92;;;;;;;;;;5052948;28;20010;-86
2021/11/04 04:40:37;;;;;;;151.90;45.15;;;;;;;;;;5035152;28;20025;-86
2021/11/04 04:43:02;;;;;;;171.50;46.53;;;;;;;;;;5036553;28;20064;-87
2021/11/04 04:45:28;;;;;;;148.90;45.78;;;;;;;;;;5028030;28;20112;-87
2021/11/04 04:47:53;;;;;;;155.85;44.03;;;;;;;;;;5029162;28;20021;-87
2021/11/04 04:50:18;;;;;;;153.07;46.05;;;;;;;;;;5029000;28;20020;-88
2021/11/04 04:52:43;;;;;;;159.88;45.30;;;;;;;;;;5028382;28;20405;-88
2021/11/04 04:55:09;;;;;;;162.07;45.38;;;;;;;;;;5030484;28;20018;-88
2021/11/04 04:57:34;;;;;;;176.90;50.60;;;;;;;;;;5027079;28;20030;-87
2021/11/04 05:00:00;;;;;;;158.90;46.28;;;;;;;;;;5027354;28;20539;-87
2021/11/04 05:02:25;;;;;;;162.10;45.03;;;;;;;;;;5027651;28;20057;-87
2021/11/04 05:04:51;;;;;;;161.02;47.00;;;;;;;;;;5027857;28;20380;-88
2021/11/04 05:07:16;;;;;;;158.63;46.95;;;;;;;;;;5025134;28;20392;-88
2021/11/04 05:09:42;;;;;;;162.43;44.88;;;;;;;;;;5017126;28;20508;-87
2021/11/04 05:12:07;;;;;;;155.63;41.17;;;;;;;;;;5021870;28;20535;-87
2021/11/04 05:14:32;;;;;;;166.93;44.38;;;;;;;;;;5028939;28;20024;-88
2021/11/04 05:16:58;;;;;;;180.93;46.50;;;;;;;;;;5030529;28;20018;-87
2021/11/04 05:19:23;;;;;;;168.18;44.20;;;;;;;;;;5036298;28;20036;-87
2021/11/04 05:21:48;;;;;;;181.02;49.08;;;;;;;;;;5038101;28;20025;-88
2021/11/04 05:24:13;;;;;;;184.80;47.90;;;;;;;;;;5028864;28;20026;-87
2021/11/04 05:26:39;;;;;;;181.05;43.53;;;;;;;;;;5026150;28;20048;-87
2021/11/04 05:29:04;;;;;;;185.68;46.53;;;;;;;;;;5026898;28;20496;-87
2021/11/04 05:31:30;;;;;;;184.00;44.63;;;;;;;;;;5027103;28;20083;-87
2021/11/04 05:33:55;;;;;;;182.23;42.45;;;;;;;;;;5027711;28;20029;-88
2021/11/04 05:36:21;;;;;;;178.50;45.08;;;;;;;;;;5027486;28;20025;-87
2021/11/04 05:38:46;;;;;;;176.10;44.72;;;;;;;;;;5029214;28;20017;-88
2021/11/04 05:41:11;;;;;;;187.35;46.40;;;;;;;;;;5033675;28;20028;-87
2021/11/04 05:43:37;;;;;;;181.98;48.92;;;;;;;;;;5034471;28;20035;-88
2021/11/04 05:46:02;;;;;;;197.02;48.55;;;;;;;;;;5042806;28;20104;-87
2021/11/04 05:48:27;;;;;;;162.95;40.42;;;;;;;;;;5043091;28;20029;-86
2021/11/04 05:50:53;;;;;;;178.18;46.47;;;;;;;;;;5043279;28;20021;-87
2021/11/04 05:53:18;;;;;;;180.90;43.33;;;;;;;;;;5036447;28;20101;-87
2021/11/04 05:55:43;;;;;;;204.25;45.53;;;;;;;;;;5035625;28;20032;-87
2021/11/04 05:58:08;;;;;;;175.30;45.03;;;;;;;;;;5037364;28;20467;-88
2021/11/04 06:00:34;;;;;;;141.07;40.05;;;;;;;;;;5036089;28;20092;-87
2021/11/04 06:02:59;;;;;;;182.20;47.28;;;;;;;;;;5036343;28;20029;-88
2021/11/04 06:05:24;;;;;;;165.50;41.63;;;;;;;;;;5040934;28;20060;-87
2021/11/04 06:07:49;;;;;;;152.50;43.08;;;;;;;;;;5036796;28;20025;-88
2021/11/04 06:10:16;;;;;;;145.05;41.25;;;;;;;;;;5037049;28;20064;-88
2021/11/04 06:12:41;;;;;;;155.35;46.45;;;;;;;;;;5037024;28;20025;-87
2021/11/04 06:15:07;;;;;;;165.32;44.63;;;;;;;;;;5039765;28;20025;-87
2021/11/04 06:17:32;;;;;;;162.68;42.10;;;;;;;;;;5040503;28;20037;-88
2021/11/04 06:19:57;;;;;;;147.10;42.45;;;;;;;;;;5031705;28;20041;-87
2021/11/04 06:22:23;;;;;;;147.52;41.83;;;;;;;;;;5031654;28;20032;-88
2021/11/04 06:24:48;;;;;;;162.40;41.35;;;;;;;;;;5032285;28;20040;-88
2021/11/04 06:27:13;;;;;;;162.27;43.42;;;;;;;;;;5030560;28;20028;-87
2021/11/04 06:29:38;;;;;;;157.32;43.05;;;;;;;;;;5030605;28;20457;-86
2021/11/04 06:32:04;;;;;;;180.15;54.38;;;;;;;;;;5031469;28;20079;-88
2021/11/04 06:34:29;;;;;;;166.98;44.83;;;;;;;;;;5030126;28;20025;-88
2021/11/04 06:37:47;;;;;;;172.70;45.58;;;;;;;;;;5025126;28;20025;-87
2021/11/04 06:42:22;;;;;;;181.18;49.10;;;;;;;;;;5032773;22;20651;-67
2021/11/04 06:44:48;;;;;;;173.63;47.67;;;;;;;;;;5006043;28;20033;-67
2021/11/04 06:47:17;;;;;;;160.07;46.35;;;;;;;;;;5005578;28;20115;-68
2021/11/04 06:49:43;;;;;;;172.85;52.33;;;;;;;;;;5006164;28;20021;-67
2021/11/04 06:52:11;;;;;;;170.00;48.50;;;;;;;;;;5008773;28;20454;-67
2021/11/04 06:54:39;;;;;;;168.50;46.33;;;;;;;;;;5010679;28;20026;-67
2021/11/04 06:57:07;;;;;;;163.38;43.90;;;;;;;;;;5009795;28;20475;-67
2021/11/04 06:59:33;;;;;;;173.85;51.20;;;;;;;;;;5009638;28;20079;-67
2021/11/04 07:01:59;;;;;;;159.98;42.45;;;;;;;;;;5010197;28;20097;-67
2021/11/04 07:04:28;;;;;;;168.63;46.63;;;;;;;;;;5005749;28;20121;-67
2021/11/04 07:07:01;;;;;;;170.23;46.45;;;;;;;;;;5012268;28;20010;-67
2021/11/04 07:09:30;;;;;;;172.85;52.97;;;;;;;;;;5011816;28;20017;-67
2021/11/04 07:11:56;;;;;;;158.75;40.38;;;;;;;;;;5012361;28;20109;-67
2021/11/04 07:14:25;;;;;;;166.18;54.85;;;;;;;;;;5011548;28;20137;-67
2021/11/04 07:16:50;;;;;;;183.38;49.33;;;;;;;;;;5012038;28;20041;-67
2021/11/04 07:19:19;;;;;;;161.18;42.60;;;;;;;;;;5011478;28;20643;-67
2021/11/04 07:21:49;;;;;;;180.35;48.90;;;;;;;;;;5011564;28;20018;-67
2021/11/04 07:24:22;;;;;;;172.73;44.47;;;;;;;;;;5011101;28;20053;-67
2021/11/04 07:26:52;;;;;;;176.18;40.28;;;;;;;;;;5011008;28;20032;-67
2021/11/04 07:29:17;;;;;;;;;;;;;;;;;;5011662;28;20573;-67
2021/11/04 07:31:42;;;;;;;152.30;43.78;;;;;;;;;;5011210;28;22143;-67
2021/11/04 07:34:09;;;;;;;152.23;37.75;;;;;;;;;;5008940;28;20034;-67
2021/11/04 07:36:35;;;;;;;168.55;45.00;;;;;;;;;;5004907;28;20061;-67
2021/11/04 07:39:03;;;;;;;168.63;43.13;;;;;;;;;;5009720;28;20425;-67
2021/11/04 07:41:29;;;;;;;163.77;43.20;;;;;;;;;;5009865;28;20378;-67
2021/11/04 07:43:55;;;;;;;156.55;43.10;;;;;;;;;;5009814;28;20026;-67
2021/11/04 07:46:21;;;;;;;147.02;40.33;;;;;;;;;;5011350;28;20033;-67
2021/11/04 07:48:46;;;;;;;156.00;48.13;;;;;;;;;;5010221;28;20053;-67
2021/11/04 07:51:11;;;;;;;129.30;36.60;;;;;;;;;;5011418;28;20490;-67
2021/11/04 07:53:38;;;;;;;139.25;38.35;;;;;;;;;;5011323;28;20030;-67
2021/11/04 07:56:03;;;;;;;144.93;40.72;;;;;;;;;;5011911;28;20083;-67
2021/11/04 07:58:28;;;;;;;156.13;46.33;;;;;;;;;;5011382;28;20052;-67
2021/11/04 08:00:53;;;;;;;189.80;56.45;;;;;;;;;;5011602;28;20017;-67
2021/11/04 08:03:18;;;;;;;170.25;41.70;;;;;;;;;;5005731;28;20026;-67
2021/11/04 08:05:44;;;;;;;166.48;43.35;;;;;;;;;;5013105;28;20026;-67
2021/11/04 08:08:09;;;;;;;185.75;51.70;;;;;;;;;;5011631;28;20026;-67
2021/11/04 08:10:34;;;;;;;170.25;45.78;;;;;;;;;;5010182;28;20026;-67
2021/11/04 08:13:06;;;;;;;163.82;45.60;;;;;;;;;;5009591;28;20032;-67
2021/11/04 08:15:31;;;;;;;176.65;48.92;;;;;;;;;;5008470;28;20047;-67
2021/11/04 08:17:57;;;;;;;162.05;43.38;;;;;;;;;;4991833;28;20471;-67
2021/11/04 08:20:22;;;;;;;167.48;45.80;;;;;;;;;;4991449;28;20088;-67
2021/11/04 08:22:47;;;;;;;156.23;45.92;;;;;;;;;;4996085;28;20025;-67
2021/11/04 08:25:12;;;;;;;158.52;43.25;;;;;;;;;;5010822;28;20022;-67
2021/11/04 08:27:38;;;;;;;169.77;52.30;;;;;;;;;;5011331;28;20466;-67
2021/11/04 08:30:04;;;;;;;162.45;49.42;;;;;;;;;;5011036;28;20022;-69
2021/11/04 08:32:29;;;;;;;148.43;45.67;;;;;;;;;;5010344;28;20048;-69
2021/11/04 08:34:55;;;;;;;152.75;45.22;;;;;;;;;;5026281;28;20470;-67
2021/11/04 08:37:21;;;;;;;138.77;49.22;;;;;;;;;;5011172;28;20018;-67
2021/11/04 08:39:46;;;;;;;134.18;40.55;;;;;;;;;;5011178;28;20086;-67
2021/11/04 08:42:12;;;;;;;113.68;40.17;;;;;;;;;;5010723;28;20064;-67
2021/11/04 08:44:38;;;;;;;112.00;39.30;;;;;;;;;;5010424;28;20485;-67
2021/11/04 08:47:03;;;;;;;134.23;43.08;;;;;;;;;;5010561;28;20025;-68
2021/11/04 08:49:29;;;;;;;148.98;46.78;;;;;;;;;;5011185;28;20018;-68
2021/11/04 08:51:55;;;;;;;129.82;43.40;;;;;;;;;;5010549;28;20017;-68
2021/11/04 08:54:23;;;;;;;128.65;44.30;;;;;;;;;;5010296;28;20377;-68
2021/11/04 08:56:49;;;;;;;130.07;41.63;;;;;;;;;;5010433;28;20033;-69
2021/11/04 08:59:15;;;;;;;137.05;42.47;;;;;;;;;;5010599;28;20387;-69
2021/11/04 09:01:41;;;;;;;128.88;41.22;;;;;;;;;;5010328;28;20014;-69
2021/11/04 09:04:07;;;;;;;127.22;42.05;;;;;;;;;;5009877;28;20026;-69
2021/11/04 09:06:32;;;;;;;133.35;41.05;;;;;;;;;;5010097;28;20022;-69
2021/11/04 09:09:01;;;;;;;143.60;45.17;;;;;;;;;;5010624;28;20030;-69
2021/11/04 09:11:27;;;;;;;130.40;42.20;;;;;;;;;;5010592;28;20023;-69
2021/11/04 09:13:52;;;;;;;127.35;43.65;;;;;;;;;;5010407;28;20048;-69
2021/11/04 09:16:17;;;;;;;137.45;42.00;;;;;;;;;;5013745;28;20069;-69
2021/11/04 09:18:43;;;;;;;135.65;45.47;;;;;;;;;;5014675;28;20038;-69
2021/11/04 09:21:08;;;;;;;135.65;42.08;;;;;;;;;;5014448;28;20054;-70
2021/11/04 09:23:33;;;;;;;134.18;46.30;;;;;;;;;;5014389;28;20052;-70
2021/11/04 09:25:58;;;;;;;130.32;39.30;;;;;;;;;;5014151;28;20405;-70
2021/11/04 09:28:23;;;;;;;141.55;42.95;;;;;;;;;;5014737;28;20065;-70
2021/11/04 09:30:49;;;;;;;153.65;44.70;;;;;;;;;;5014466;28;20064;-70
2021/11/04 09:33:14;;;;;;;150.38;46.55;;;;;;;;;;5013816;28;20030;-70
2021/11/04 09:35:39;;;;;;;150.90;43.13;;;;;;;;;;5014094;28;20104;-70
2021/11/04 09:38:05;;;;;;;140.95;41.90;;;;;;;;;;5014200;28;20356;-70
2021/11/04 09:40:30;;;;;;;139.98;44.17;;;;;;;;;;5014032;28;20022;-70
2021/11/04 09:42:56;;;;;;;130.48;40.33;;;;;;;;;;5013954;28;20022;-70
2021/11/04 09:45:22;;;;;;;160.23;54.97;;;;;;;;;;5013739;28;20108;-70
2021/11/04 09:47:47;;;;;;;170.57;47.08;;;;;;;;;;5014335;28;20489;-70
2021/11/04 09:50:13;;;;;;;159.68;46.53;;;;;;;;;;5013955;28;20148;-70
2021/11/04 09:52:40;;;;;;;160.48;45.50;;;;;;;;;;5013136;28;20213;-70
2021/11/04 09:55:06;;;;;;;165.20;49.03;;;;;;;;;;5013651;28;20402;-70
2021/11/04 09:57:32;;;;;;;182.60;50.55;;;;;;;;;;5014027;28;20022;-70
2021/11/04 09:59:57;;;;;;;163.70;49.53;;;;;;;;;;5014305;28;20014;-70
2021/11/04 10:02:24;;;;;;;167.05;48.42;;;;;;;;;;5013201;28;20056;-70
2021/11/04 10:04:50;;;;;;;172.63;50.50;;;;;;;;;;5013936;28;20026;-70
2021/11/04 10:07:16;;;;;;;177.45;54.38;;;;;;;;;;5013416;28;20389;-70
2021/11/04 10:09:42;;;;;;;176.35;47.80;;;;;;;;;;5013536;28;20068;-70
2021/11/04 10:12:11;;;;;;;146.73;42.78;;;;;;;;;;5013408;28;20124;-70
2021/11/04 10:14:37;;;;;;;150.50;48.17;;;;;;;;;;5013924;28;20382;-70
2021/11/04 10:17:03;;;;;;;159.82;51.13;;;;;;;;;;5013391;28;20017;-70
2021/11/04 10:19:39;;;;;;;153.48;46.47;;;;;;;;;;5013072;28;20501;-70
2021/11/04 10:22:04;;;;;;;161.75;55.17;;;;;;;;;;5013267;28;20022;-70
2021/11/04 10:24:29;;;;;;;141.30;45.50;;;;;;;;;;5013577;28;20044;-70
2021/11/04 10:26:55;;;;;;;140.07;47.75;;;;;;;;;;5013072;28;20026;-70
2021/11/04 10:29:21;;;;;;;125.70;46.15;;;;;;;;;;5013006;28;20101;-70
2021/11/04 10:31:52;;;;;;;118.03;43.50;;;;;;;;;;5013295;28;20030;-70
2021/11/04 10:34:23;;;;;;;108.55;38.90;;;;;;;;;;5013029;28;20022;-70
2021/11/04 10:36:48;;;;;;;106.20;37.35;;;;;;;;;;5012967;28;20088;-70
2021/11/04 10:39:13;;;;;;;113.72;42.58;;;;;;;;;;5013085;28;20108;-69
2021/11/04 10:41:40;;;;;;;103.72;40.60;;;;;;;;;;5013140;28;20391;-69
2021/11/04 10:44:16;;;;;;;96.85;36.28;;;;;;;;;;5013010;28;20026;-69
2021/11/04 10:46:59;;;;;;;87.88;34.97;;;;;;;;;;5012807;28;20387;-69
2021/11/04 10:49:25;;;;;;;98.03;36.35;;;;;;;;;;5012517;28;20045;-69
2021/11/04 10:51:58;;;;;;;86.38;34.15;;;;;;;;;;5012562;28;20096;-69
2021/11/04 10:54:23;;;;;;;81.75;34.03;;;;;;;;;;5012510;28;20013;-69
2021/11/04 10:56:50;;;;;;;85.93;33.88;;;;;;;;;;5012709;28;20026;-69
2021/11/04 10:59:17;;;;;;;86.68;34.72;;;;;;;;;;5012656;28;20026;-68
2021/11/04 11:01:43;;;;;;;85.97;36.78;;;;;;;;;;5013038;28;20025;-68
2021/11/04 11:04:10;;;;;;;81.43;34.00;;;;;;;;;;5012354;28;20390;-68
2021/11/04 11:06:36;;;;;;;87.70;34.90;;;;;;;;;;5012178;28;20022;-69
2021/11/04 11:09:05;;;;;;;83.63;34.40;;;;;;;;;;5012122;28;20029;-69
2021/11/04 11:11:30;;;;;;;87.55;35.05;;;;;;;;;;5011039;28;20050;-68
2021/11/04 11:13:56;;;;;;;90.70;36.13;;;;;;;;;;5011801;28;20060;-68
2021/11/04 11:16:21;;;;;;;81.23;35.47;;;;;;;;;;4998709;28;20475;-69
2021/11/04 11:18:46;;;;;;;85.40;35.97;;;;;;;;;;5011761;28;20277;-68
2021/11/04 11:21:12;;;;;;;96.45;40.17;;;;;;;;;;5011918;28;20030;-69
2021/11/04 11:23:37;;;;;;;102.82;39.53;;;;;;;;;;5012280;28;20076;-68
2021/11/04 11:26:04;;;;;;;103.10;39.78;;;;;;;;;;5012057;28;20025;-69
2021/11/04 11:28:31;;;;;;;110.18;41.78;;;;;;;;;;5012351;28;20491;-71
2021/11/04 11:31:08;;;;;;;101.03;42.47;;;;;;;;;;5012188;28;20025;-68
2021/11/04 11:33:33;;;;;;;100.25;39.22;;;;;;;;;;5011754;28;20029;-71
2021/11/04 11:36:18;;;;;;;115.78;44.15;;;;;;;;;;5012113;28;20079;-69
2021/11/04 11:38:56;;;;;;;112.28;40.88;;;;;;;;;;5011652;28;20020;-68
2021/11/04 11:41:21;;;;;;;100.20;39.33;;;;;;;;;;5011834;28;20804;-68
2021/11/04 11:43:53;;;;;;;97.97;40.60;;;;;;;;;;5011820;28;20022;-68
2021/11/04 11:46:18;;;;;;;106.72;43.22;;;;;;;;;;5012209;28;20033;-69
2021/11/04 11:48:44;;;;;;;109.70;40.90;;;;;;;;;;5012049;28;20013;-68
2021/11/04 11:51:09;;;;;;;103.25;38.92;;;;;;;;;;5011650;28;20034;-68
2021/11/04 11:53:37;;;;;;;99.38;37.78;;;;;;;;;;5011205;28;20061;-70
2021/11/04 11:56:03;;;;;;;97.72;37.90;;;;;;;;;;5011809;28;20025;-69
2021/11/04 11:58:36;;;;;;;102.78;40.78;;;;;;;;;;5011569;28;20018;-71
2021/11/04 12:01:09;;;;;;;106.53;38.92;;;;;;;;;;5011765;28;20405;-68
2021/11/04 12:03:38;;;;;;;100.47;37.63;;;;;;;;;;5010813;28;20355;-68
2021/11/04 12:06:04;;;;;;;108.35;38.42;;;;;;;;;;5011549;28;20482;-68
2021/11/04 12:08:31;;;;;;;102.53;38.63;;;;;;;;;;5011604;28;20374;-68
2021/11/04 12:10:57;;;;;;;100.32;38.58;;;;;;;;;;5011242;28;20017;-68
2021/11/04 12:13:40;;;;;;;92.53;35.00;;;;;;;;;;5010701;28;20577;-68
2021/11/04 12:16:12;;;;;;;96.35;37.33;;;;;;;;;;5011250;28;20075;-69
2021/11/04 12:18:50;;;;;;;108.10;39.85;;;;;;;;;;5026058;28;20057;-69
2021/11/04 12:21:19;;;;;;;88.95;36.47;;;;;;;;;;5011093;28;20026;-68
2021/11/04 12:23:44;;;;;;;87.35;35.55;;;;;;;;;;5010545;28;20049;-68
2021/11/04 12:26:09;;;;;;;91.63;37.08;;;;;;;;;;5011193;28;20124;-71
2021/11/04 12:28:48;;;;;;;108.88;36.58;;;;;;;;;;5011204;28;20049;-68
2021/11/04 12:31:17;;;;;;;100.68;38.95;;;;;;;;;;5011539;28;20029;-68
2021/11/04 12:33:43;;;;;;;85.18;35.10;;;;;;;;;;5010633;28;20030;-68
2021/11/04 12:36:08;;;;;;;98.55;40.33;;;;;;;;;;5011206;28;20060;-70
2021/11/04 12:38:41;;;;;;;81.25;34.85;;;;;;;;;;5010588;28;20026;-68
2021/11/04 12:41:10;;;;;;;92.68;35.63;;;;;;;;;;5008854;28;20013;-71
2021/11/04 12:43:36;;;;;;;100.00;34.95;;;;;;;;;;5010540;28;20414;-68
2021/11/04 12:46:12;;;;;;;93.32;36.20;;;;;;;;;;5011085;28;20033;-68
2021/11/04 12:48:53;;;;;;;87.80;33.92;;;;;;;;;;5010216;28;20442;-71
2021/11/04 12:51:18;;;;;;;89.38;35.10;;;;;;;;;;5010814;28;20010;-68
2021/11/04 12:53:50;;;;;;;90.68;35.10;;;;;;;;;;5033242;23;20042;-68
2021/11/04 12:56:15;;;;;;;88.97;34.25;;;;;;;;;;5030103;28;20022;-68
2021/11/04 12:58:40;;;;;;;85.00;34.00;;;;;;;;;;5029922;28;20036;-68
2021/11/04 13:01:05;;;;;;;89.15;34.08;;;;;;;;;;5041224;28;20016;-68
2021/11/04 13:03:34;;;;;;;92.47;34.15;;;;;;;;;;5028447;28;20021;-68
2021/11/04 13:06:00;;;;;;;83.72;32.75;;;;;;;;;;5030308;28;20026;-68
2021/11/04 13:08:28;;;;;;;85.75;33.97;;;;;;;;;;5029049;28;20029;-68
2021/11/04 13:10:53;;;;;;;84.55;32.25;;;;;;;;;;5028530;28;20478;-68
2021/11/04 13:13:19;;;;;;;77.05;31.05;;;;;;;;;;5030034;28;20027;-68
2021/11/04 13:15:47;;;;;;;73.53;31.58;;;;;;;;;;5029927;28;20071;-68
2021/11/04 13:18:13;;;;;;;74.63;31.17;;;;;;;;;;5030191;28;20459;-68
2021/11/04 13:20:38;;;;;;;81.13;32.63;;;;;;;;;;5030339;28;20097;-68
2021/11/04 13:23:10;;;;;;;73.53;31.10;;;;;;;;;;5029605;28;20021;-68
2021/11/04 13:25:35;;;;;;;90.03;32.40;;;;;;;;;;5030105;28;20437;-68
2021/11/04 13:28:03;;;;;;;80.72;31.88;;;;;;;;;;5029991;28;20105;-68
2021/11/04 13:30:37;;;;;;;80.05;32.97;;;;;;;;;;5029877;28;20380;-68
2021/11/04 13:33:02;;;;;;;78.50;31.27;;;;;;;;;;5029331;28;20026;-68
2021/11/04 13:35:31;;;;;;;85.63;34.10;;;;;;;;;;5029725;28;20427;-68
2021/11/04 13:38:06;;;;;;;80.63;33.10;;;;;;;;;;5030064;28;20071;-68
2021/11/04 13:40:51;;;;;;;81.25;29.98;;;;;;;;;;5029887;28;20036;-68
2021/11/04 13:43:18;;;;;;;80.90;33.88;;;;;;;;;;5029231;28;20021;-68
2021/11/04 13:45:44;;;;;;;74.72;32.60;;;;;;;;;;5029299;28;20045;-68
2021/11/04 13:48:09;;;;;;;85.93;34.30;;;;;;;;;;5029564;28;20021;-68
2021/11/04 13:50:40;;;;;;;99.72;42.55;;;;;;;;;;5028068;28;20429;-68
2021/11/04 13:53:15;;;;;;;70.38;30.15;;;;;;;;;;5028210;28;20444;-68
2021/11/04 13:55:41;;;;;;;76.72;32.35;;;;;;;;;;5029226;28;20490;-68
2021/11/04 13:58:06;;;;;;;75.07;31.83;;;;;;;;;;5029261;28;20013;-67
2021/11/04 14:00:34;;;;;;;77.57;31.48;;;;;;;;;;5030458;28;20393;-68
2021/11/04 14:03:01;;;;;;;84.40;34.83;;;;;;;;;;5032571;28;20016;-67
2021/11/04 14:05:45;;;;;;;69.93;30.00;;;;;;;;;;5033107;28;20029;-67
2021/11/04 14:08:13;;;;;;;66.63;29.98;;;;;;;;;;5031727;28;20021;-66
2021/11/04 14:10:38;;;;;;;79.00;33.72;;;;;;;;;;5033197;28;20022;-68